createdAt,value
2018-06-02T00:00:28.686Z,100934.22
2018-06-02T00:02:57.137Z,100930.30
2018-06-02T00:05:26.426Z,100937.98
2018-06-02T00:07:55.336Z,100934.50
2018-06-02T00:10:24.525Z,100942.25
2018-06-02T00:12:54.067Z,100940.59
2018-06-02T00:15:24.885Z,100945.23
2018-06-02T00:17:53.567Z,100949.52
2018-06-02T00:20:23.643Z,100947.42
2018-06-02T00:22:52.082Z,100952.72
2018-06-02T00:25:20.505Z,100946.14
2018-06-02T00:27:51.225Z,100949.16
2018-06-02T00:30:19.609Z,100946.66
2018-06-02T00:32:48.038Z,100949.27
2018-06-02T00:35:16.412Z,100959.45
2018-06-02T00:37:44.894Z,100964.51
2018-06-02T00:40:13.827Z,100959.48
2018-06-02T00:42:43.324Z,100963.98
2018-06-02T00:45:12.805Z,100963.89
2018-06-02T00:47:41.246Z,100966.35
2018-06-02T00:50:12.274Z,100965.04
2018-06-02T00:52:41.972Z,100961.81
2018-06-02T00:55:11.465Z,100964.25
2018-06-02T00:57:40.570Z,100969.37
2018-06-02T01:00:09.849Z,100963.95
2018-06-02T01:02:39.906Z,100964.17
2018-06-02T01:05:09.222Z,100969.61
2018-06-02T01:07:38.665Z,100969.69
2018-06-02T01:10:07.025Z,100968.13
2018-06-02T01:12:36.096Z,100962.77
2018-06-02T01:15:06.127Z,100963.80
2018-06-02T01:17:34.486Z,100967.73
2018-06-02T01:20:03.977Z,100968.25
2018-06-02T01:22:33.249Z,100972.81
2018-06-02T01:25:03.305Z,100964.59
2018-06-02T01:27:32.088Z,100965.87
2018-06-02T01:30:02.098Z,100969.50
2018-06-02T01:32:31.560Z,100965.59
2018-06-02T01:34:59.945Z,100963.63
2018-06-02T01:37:29.086Z,100975.55
2018-06-02T01:39:57.524Z,100977.38
2018-06-02T01:42:26.888Z,100966.28
2018-06-02T01:44:56.328Z,100963.61
2018-06-02T01:47:25.535Z,100970.83
2018-06-02T01:49:54.709Z,100963.44
2018-06-02T01:52:24.051Z,100963.86
2018-06-02T01:54:52.836Z,100964.45
2018-06-02T01:57:21.228Z,100972.20
2018-06-02T01:59:49.687Z,100970.66
2018-06-02T02:02:18.854Z,100977.95
2018-06-02T02:04:47.545Z,100972.71
2018-06-02T02:07:15.933Z,100973.56
2018-06-02T02:09:44.754Z,100970.89
2018-06-02T02:12:13.130Z,100975.05
2018-06-02T02:14:42.468Z,100976.66
2018-06-02T02:17:11.253Z,100975.67
2018-06-02T02:19:39.598Z,100973.38
2018-06-02T02:22:08.603Z,100977.06
2018-06-02T02:24:38.041Z,100974.95
2018-06-02T02:27:06.396Z,100975.64
2018-06-02T02:29:34.777Z,100976.09
2018-06-02T02:32:03.180Z,100972.25
2018-06-02T02:34:31.595Z,100981.91
2018-06-02T02:37:00.845Z,100976.15
2018-06-02T02:39:29.185Z,100972.73
2018-06-02T02:41:58.326Z,100975.72
2018-06-02T02:44:27.695Z,100981.05
2018-06-02T02:46:57.070Z,100984.63
2018-06-02T02:49:27.086Z,100992.52
2018-06-02T02:51:58.422Z,100992.94
2018-06-02T02:54:27.236Z,100996.03
2018-06-02T02:56:57.043Z,100999.26
2018-06-02T02:59:26.200Z,100999.42
2018-06-02T03:01:55.259Z,101001.84
2018-06-02T03:04:24.458Z,101003.16
2018-06-02T03:06:52.905Z,101007.64
2018-06-02T03:09:22.067Z,101007.93
2018-06-02T03:11:50.981Z,101015.30
2018-06-02T03:14:19.316Z,101014.58
2018-06-02T03:16:47.717Z,101019.16
2018-06-02T03:19:16.126Z,101015.05
2018-06-02T03:21:46.491Z,101019.98
2018-06-02T03:24:14.849Z,101024.05
2018-06-02T03:26:43.252Z,101022.78
2018-06-02T03:29:11.604Z,101029.45
2018-06-02T03:31:40.049Z,101025.91
2018-06-02T03:34:08.414Z,101024.61
2018-06-02T03:36:36.767Z,101027.80
2018-06-02T03:39:05.909Z,101033.08
2018-06-02T03:41:34.267Z,101033.86
2018-06-02T03:44:04.098Z,101038.00
2018-06-02T03:46:32.738Z,101039.50
2018-06-02T03:49:01.099Z,101038.00
2018-06-02T03:51:29.471Z,101036.74
2018-06-02T03:53:57.871Z,101033.20
2018-06-02T03:56:26.260Z,101037.45
2018-06-02T03:58:55.454Z,101033.76
2018-06-02T04:01:23.805Z,101042.40
2018-06-02T04:03:52.195Z,101046.09
2018-06-02T04:06:20.567Z,101054.17
2018-06-02T04:08:48.952Z,101054.76
2018-06-02T04:11:17.959Z,101044.86
2018-06-02T04:13:46.439Z,101054.29
2018-06-02T04:16:15.576Z,101056.62
2018-06-02T04:18:43.946Z,101052.72
2018-06-02T04:21:13.373Z,101059.05
2018-06-02T04:23:42.489Z,101061.67
2018-06-02T04:26:12.365Z,101063.25
2018-06-02T04:28:41.740Z,101067.72
2018-06-02T04:31:10.134Z,101062.81
2018-06-02T04:33:39.545Z,101061.54
2018-06-02T04:36:08.921Z,101071.23
2018-06-02T04:38:38.137Z,101068.16
2018-06-02T04:41:06.754Z,101073.45
2018-06-02T04:43:35.150Z,101072.12
2018-06-02T04:46:04.266Z,101078.04
2018-06-02T04:48:33.022Z,101080.66
2018-06-02T04:51:02.299Z,101085.45
2018-06-02T04:53:31.898Z,101079.41
2018-06-02T04:56:00.345Z,101084.64
2018-06-02T04:58:29.441Z,101089.84
2018-06-02T05:00:58.720Z,101084.16
2018-06-02T05:03:28.694Z,101085.66
2018-06-02T05:05:57.346Z,101087.22
2018-06-02T05:08:26.548Z,101089.85
2018-06-02T05:10:54.948Z,101092.59
2018-06-02T05:13:24.022Z,101100.31
2018-06-02T05:15:52.399Z,101097.80
2018-06-02T05:18:20.757Z,101097.66
2018-06-02T05:20:49.131Z,101106.66
2018-06-02T05:23:17.536Z,101102.62
2018-06-02T05:25:46.705Z,101090.88
2018-06-02T05:28:15.836Z,101100.72
2018-06-02T05:30:44.752Z,101091.52
2018-06-02T05:33:13.782Z,101093.91
2018-06-02T05:35:42.707Z,101089.20
2018-06-02T05:38:11.200Z,101089.34
2018-06-02T05:40:40.389Z,101096.72
2018-06-02T05:43:08.827Z,101091.13
2018-06-02T05:45:37.991Z,101095.59
2018-06-02T05:48:06.485Z,101097.89
2018-06-02T05:50:34.869Z,101105.32
2018-06-02T05:53:03.286Z,101104.23
2018-06-02T05:55:31.687Z,101108.81
2018-06-02T05:58:01.045Z,101109.36
2018-06-02T06:00:30.272Z,101109.89
2018-06-02T06:02:59.548Z,101104.73
2018-06-02T06:05:28.721Z,101111.12
2018-06-02T06:07:57.974Z,101101.95
2018-06-02T06:10:26.358Z,101108.22
2018-06-02T06:12:54.745Z,101116.13
2018-06-02T06:15:23.936Z,101111.95
2018-06-02T06:17:52.294Z,101112.30
2018-06-02T06:20:20.736Z,101101.63
2018-06-02T06:22:51.191Z,101102.48
2018-06-02T06:25:19.565Z,101104.95
2018-06-02T06:27:48.687Z,101101.79
2018-06-02T06:30:17.648Z,101105.78
2018-06-02T06:32:47.521Z,101105.16
2018-06-02T06:35:15.989Z,101108.91
2018-06-02T06:37:44.537Z,101117.91
2018-06-02T06:40:14.136Z,101118.22
2018-06-02T06:42:44.515Z,101119.08
2018-06-02T06:45:12.950Z,101123.11
2018-06-02T06:47:42.771Z,101122.34
2018-06-02T06:50:11.434Z,101125.86
2018-06-02T06:52:41.317Z,101127.83
2018-06-02T06:55:09.812Z,101126.69
2018-06-02T06:57:38.199Z,101129.42
2018-06-02T07:00:07.325Z,101126.39
2018-06-02T07:02:35.705Z,101130.84
2018-06-02T07:05:04.049Z,101132.53
2018-06-02T07:07:33.036Z,101131.42
2018-06-02T07:10:01.983Z,101144.19
2018-06-02T07:12:30.442Z,101145.06
2018-06-02T07:14:58.795Z,101152.05
2018-06-02T07:17:27.185Z,101150.52
2018-06-02T07:19:56.392Z,101156.29
2018-06-02T07:22:24.909Z,101155.77
2018-06-02T07:24:54.034Z,101153.31
2018-06-02T07:27:23.415Z,101158.80
2018-06-02T07:29:51.816Z,101157.38
2018-06-02T07:32:20.804Z,101156.24
2018-06-02T07:34:49.176Z,101156.47
2018-06-02T07:37:17.523Z,101165.73
2018-06-02T07:39:45.926Z,101166.89
2018-06-02T07:42:15.067Z,101172.02
2018-06-02T07:44:43.695Z,101174.59
2018-06-02T07:47:13.119Z,101177.55
2018-06-02T07:49:41.671Z,101182.20
2018-06-02T07:52:10.017Z,101182.94
2018-06-02T07:54:39.138Z,101180.00
2018-06-02T07:57:08.180Z,101177.64
2018-06-02T07:59:36.541Z,101182.50
2018-06-02T08:02:04.920Z,101181.09
2018-06-02T08:04:33.299Z,101184.11
2018-06-02T08:07:01.871Z,101185.66
2018-06-02T08:09:30.251Z,101182.75
2018-06-02T08:11:58.727Z,101186.72
2018-06-02T08:14:27.098Z,101185.04
2018-06-02T08:16:55.821Z,101184.19
2018-06-02T08:19:24.459Z,101187.73
2018-06-02T08:21:53.735Z,101194.27
2018-06-02T08:24:23.194Z,101202.22
2018-06-02T08:26:52.480Z,101196.30
2018-06-02T08:29:20.868Z,101204.34
2018-06-02T08:31:50.209Z,101209.95
2018-06-02T08:34:20.075Z,101209.05
2018-06-02T08:36:48.985Z,101213.77
2018-06-02T08:39:17.991Z,101216.84
2018-06-02T08:41:46.859Z,101219.34
2018-06-02T08:44:16.232Z,101212.89
2018-06-02T08:46:45.218Z,101217.08
2018-06-02T08:49:15.218Z,101218.29
2018-06-02T08:51:44.842Z,101211.45
2018-06-02T08:54:13.956Z,101222.74
2018-06-02T08:59:11.083Z,101215.16
2018-06-02T09:01:40.286Z,101221.14
2018-06-02T09:04:09.486Z,101227.19
2018-06-02T09:06:38.831Z,101225.37
2018-06-02T09:09:08.117Z,101227.11
2018-06-02T09:11:36.467Z,101225.82
2018-06-02T09:14:05.819Z,101223.13
2018-06-02T09:16:34.203Z,101217.83
2018-06-02T09:19:03.771Z,101222.73
2018-06-02T09:21:32.977Z,101221.70
2018-06-02T09:24:01.887Z,101221.13
2018-06-02T09:26:30.376Z,101218.80
2018-06-02T09:28:59.360Z,101224.14
2018-06-02T09:31:28.745Z,101230.44
2018-06-02T09:33:57.225Z,101230.34
2018-06-02T09:36:25.615Z,101224.55
2018-06-02T09:38:53.994Z,101233.66
2018-06-02T09:41:23.376Z,101233.18
2018-06-02T09:43:51.839Z,101234.41
2018-06-02T09:46:21.155Z,101237.92
2018-06-02T09:48:49.895Z,101237.88
2018-06-02T09:51:18.765Z,101237.92
2018-06-02T09:53:47.120Z,101233.28
2018-06-02T09:56:16.075Z,101236.28
2018-06-02T09:58:45.068Z,101237.72
2018-06-02T10:01:13.524Z,101241.73
2018-06-02T10:03:41.895Z,101241.76
2018-06-02T10:06:10.439Z,101241.99
2018-06-02T10:08:40.139Z,101241.90
2018-06-02T10:11:09.866Z,101244.70
2018-06-02T10:13:38.452Z,101243.87
2018-06-02T10:16:06.905Z,101240.51
2018-06-02T10:18:36.726Z,101245.92
2018-06-02T10:21:05.850Z,101242.98
2018-06-02T10:23:34.465Z,101249.45
2018-06-02T10:26:02.899Z,101245.20
2018-06-02T10:28:31.319Z,101243.92
2018-06-02T10:31:02.867Z,101244.52
2018-06-02T10:33:31.644Z,101243.20
2018-06-02T10:36:00.100Z,101240.10
2018-06-02T10:38:30.075Z,101236.58
2018-06-02T10:40:58.512Z,101231.09
2018-06-02T10:43:27.607Z,101236.16
2018-06-02T10:45:57.085Z,101240.14
2018-06-02T10:48:28.356Z,101234.73
2018-06-02T10:50:56.795Z,101240.66
2018-06-02T10:53:25.164Z,101236.53
2018-06-02T10:55:53.546Z,101233.77
2018-06-02T10:58:21.960Z,101235.52
2018-06-02T11:00:50.293Z,101232.81
2018-06-02T11:03:19.414Z,101239.33
2018-06-02T11:05:48.540Z,101240.20
2018-06-02T11:08:17.017Z,101237.73
2018-06-02T11:10:45.498Z,101242.27
2018-06-02T11:13:14.254Z,101242.39
2018-06-02T11:15:42.676Z,101245.33
2018-06-02T11:18:11.916Z,101244.19
2018-06-02T11:20:40.427Z,101251.26
2018-06-02T11:23:09.497Z,101245.70
2018-06-02T11:25:38.444Z,101247.58
2018-06-02T11:28:07.489Z,101246.70
2018-06-02T11:30:37.594Z,101248.34
2018-06-02T11:33:05.993Z,101250.89
2018-06-02T11:35:35.177Z,101251.61
2018-06-02T11:38:03.546Z,101249.19
2018-06-02T11:40:33.800Z,101250.45
2018-06-02T11:43:03.893Z,101244.25
2018-06-02T11:45:32.962Z,101246.82
2018-06-02T11:48:01.749Z,101246.53
2018-06-02T11:50:31.597Z,101245.95
2018-06-02T11:53:00.149Z,101246.94
2018-06-02T11:55:28.537Z,101246.41
2018-06-02T11:57:56.901Z,101243.48
2018-06-02T12:00:25.282Z,101250.27
2018-06-02T12:02:54.470Z,101254.27
2018-06-02T12:05:22.865Z,101245.55
2018-06-02T12:07:51.323Z,101243.53
2018-06-02T12:10:19.702Z,101247.44
2018-06-02T12:12:48.089Z,101245.39
2018-06-02T12:15:16.482Z,101244.34
2018-06-02T12:17:45.188Z,101242.70
2018-06-02T12:22:42.057Z,101243.05
2018-06-02T12:25:11.618Z,101243.85
2018-06-02T12:27:42.873Z,101242.37
2018-06-02T12:30:11.270Z,101243.41
2018-06-02T12:32:41.216Z,101245.45
2018-06-02T12:35:11.821Z,101243.03
2018-06-02T12:37:44.748Z,101241.21
2018-06-02T12:40:16.271Z,101255.18
2018-06-02T12:42:47.303Z,101243.22
2018-06-02T12:45:16.457Z,101243.52
2018-06-02T12:47:45.864Z,101232.80
2018-06-02T12:50:15.478Z,101232.48
2018-06-02T12:52:45.122Z,101236.70
2018-06-02T12:55:15.089Z,101234.70
2018-06-02T12:57:45.738Z,101234.73
2018-06-02T13:00:14.257Z,101231.55
2018-06-02T13:02:42.608Z,101234.09
2018-06-02T13:05:12.349Z,101236.19
2018-06-02T13:07:40.728Z,101236.42
2018-06-02T13:10:09.206Z,101242.02
2018-06-02T13:12:38.438Z,101244.92
2018-06-02T13:15:07.609Z,101252.89
2018-06-02T13:17:35.940Z,101254.02
2018-06-02T13:20:04.333Z,101243.47
2018-06-02T13:22:32.701Z,101240.35
2018-06-02T13:25:01.256Z,101244.74
2018-06-02T13:27:29.593Z,101241.69
2018-06-02T13:29:57.946Z,101242.33
2018-06-02T13:32:26.382Z,101242.17
2018-06-02T13:34:55.488Z,101240.53
2018-06-02T13:37:24.729Z,101235.08
2018-06-02T13:39:53.183Z,101239.08
2018-06-02T13:42:21.820Z,101236.20
2018-06-02T13:44:50.260Z,101236.44
2018-06-02T13:47:18.635Z,101231.47
2018-06-02T13:49:47.065Z,101235.98
2018-06-02T13:52:16.988Z,101231.47
2018-06-02T13:54:46.199Z,101229.17
2018-06-02T13:57:15.945Z,101226.72
2018-06-02T13:59:44.363Z,101223.00
2018-06-02T14:02:13.497Z,101227.25
2018-06-02T14:04:41.936Z,101227.25
2018-06-02T14:07:12.089Z,101223.72
2018-06-02T14:09:41.258Z,101227.49
2018-06-02T14:12:09.931Z,101220.34
2018-06-02T14:14:38.307Z,101225.60
2018-06-02T14:17:06.682Z,101220.05
2018-06-02T14:19:35.085Z,101216.30
2018-06-02T14:22:04.335Z,101220.16
2018-06-02T14:24:32.743Z,101210.50
2018-06-02T14:27:01.128Z,101212.01
2018-06-02T14:29:29.525Z,101213.36
2018-06-02T14:32:00.436Z,101210.86
2018-06-02T14:34:28.793Z,101212.33
2018-06-02T14:36:58.112Z,101218.72
2018-06-02T14:39:27.197Z,101215.25
2018-06-02T14:41:55.548Z,101217.23
2018-06-02T14:44:23.886Z,101212.31
2018-06-02T14:46:52.225Z,101219.17
2018-06-02T14:49:20.633Z,101212.36
2018-06-02T14:51:50.582Z,101210.82
2018-06-02T14:54:20.402Z,101216.08
2018-06-02T14:56:49.626Z,101214.51
2018-06-02T14:59:18.241Z,101213.77
2018-06-02T15:01:46.607Z,101214.97
2018-06-02T15:04:16.660Z,101206.20
2018-06-02T15:06:45.786Z,101212.08
2018-06-02T15:09:14.133Z,101208.98
2018-06-02T15:11:43.305Z,101208.44
2018-06-02T15:14:12.252Z,101208.38
2018-06-02T15:16:42.458Z,101204.59
2018-06-02T15:19:11.744Z,101204.16
2018-06-02T15:21:40.903Z,101205.05
2018-06-02T15:24:09.278Z,101206.33
2018-06-02T15:26:38.454Z,101203.33
2018-06-02T15:29:07.794Z,101207.98
2018-06-02T15:31:36.126Z,101201.88
2018-06-02T15:34:05.257Z,101206.95
2018-06-02T15:36:34.612Z,101206.47
2018-06-02T15:39:03.041Z,101205.67
2018-06-02T15:41:32.133Z,101202.47
2018-06-02T15:44:01.482Z,101199.23
2018-06-02T15:46:30.696Z,101203.22
2018-06-02T15:49:00.629Z,101205.73
2018-06-02T15:51:29.823Z,101201.89
2018-06-02T15:53:59.111Z,101202.55
2018-06-02T15:56:27.602Z,101202.74
2018-06-02T15:58:56.002Z,101201.28
2018-06-02T16:01:24.678Z,101204.63
2018-06-02T16:03:53.057Z,101207.13
2018-06-02T16:06:23.199Z,101210.72
2018-06-02T16:08:51.745Z,101207.36
2018-06-02T16:11:21.186Z,101203.67
2018-06-02T16:13:49.950Z,101208.96
2018-06-02T16:16:18.376Z,101208.48
2018-06-02T16:18:48.206Z,101211.31
2018-06-02T16:21:16.726Z,101209.44
2018-06-02T16:23:45.843Z,101204.64
2018-06-02T16:26:16.599Z,101204.88
2018-06-02T16:28:45.503Z,101204.48
2018-06-02T16:31:15.424Z,101208.98
2018-06-02T16:33:44.318Z,101204.91
2018-06-02T16:36:12.810Z,101205.34
2018-06-02T16:38:42.677Z,101202.20
2018-06-02T16:41:11.778Z,101197.66
2018-06-02T16:43:41.014Z,101200.53
2018-06-02T16:46:09.526Z,101199.80
2018-06-02T16:48:39.371Z,101198.95
2018-06-02T16:51:07.745Z,101210.64
2018-06-02T16:53:36.104Z,101204.95
2018-06-02T16:56:04.627Z,101205.59
2018-06-02T16:58:34.069Z,101204.31
2018-06-02T17:01:02.456Z,101204.20
2018-06-02T17:03:31.767Z,101203.86
2018-06-02T17:06:00.147Z,101208.83
2018-06-02T17:08:32.009Z,101213.39
2018-06-02T17:11:00.393Z,101210.00
2018-06-02T17:13:28.779Z,101215.12
2018-06-02T17:15:57.215Z,101214.69
2018-06-02T17:18:25.719Z,101221.31
2018-06-02T17:20:54.110Z,101220.86
2018-06-02T17:23:22.484Z,101220.73
2018-06-02T17:25:51.962Z,101222.97
2018-06-02T17:28:20.433Z,101215.70
2018-06-02T17:30:48.785Z,101224.70
2018-06-02T17:33:17.205Z,101223.70
2018-06-02T17:35:46.601Z,101223.78
2018-06-02T17:38:15.055Z,101220.95
2018-06-02T17:40:45.045Z,101229.94
2018-06-02T17:43:13.393Z,101235.55
2018-06-02T17:45:43.231Z,101234.88
2018-06-02T17:48:12.915Z,101234.55
2018-06-02T17:50:41.906Z,101233.67
2018-06-02T17:53:11.151Z,101242.55
2018-06-02T17:55:39.506Z,101241.44
2018-06-02T17:58:07.969Z,101239.69
2018-06-02T18:00:37.211Z,101240.11
2018-06-02T18:03:05.953Z,101232.72
2018-06-02T18:05:35.137Z,101240.84
2018-06-02T18:08:04.425Z,101231.95
2018-06-02T18:10:32.799Z,101240.84
2018-06-02T18:13:03.041Z,101237.48
2018-06-02T18:15:31.397Z,101238.31
2018-06-02T18:18:00.965Z,101242.73
2018-06-02T18:20:29.312Z,101237.60
2018-06-02T18:22:59.508Z,101231.62
2018-06-02T18:25:28.620Z,101231.09
2018-06-02T18:27:57.067Z,101235.59
2018-06-02T18:30:26.210Z,101233.43
2018-06-02T18:32:54.549Z,101233.79
2018-06-02T18:35:23.665Z,101238.14
2018-06-02T18:37:52.639Z,101239.34
2018-06-02T18:40:22.615Z,101230.30
2018-06-02T18:42:51.250Z,101239.45
2018-06-02T18:45:20.453Z,101238.23
2018-06-02T18:47:50.345Z,101239.49
2018-06-02T18:50:20.388Z,101244.30
2018-06-02T18:52:48.802Z,101244.85
2018-06-02T18:55:17.467Z,101242.54
2018-06-02T18:57:45.845Z,101242.95
2018-06-02T19:00:14.216Z,101243.11
2018-06-02T19:02:42.851Z,101247.02
2018-06-02T19:05:11.689Z,101253.92
2018-06-02T19:07:41.256Z,101251.28
2018-06-02T19:10:11.743Z,101247.94
2018-06-02T19:12:40.105Z,101244.34
2018-06-02T19:15:10.150Z,101248.89
2018-06-02T19:17:38.998Z,101246.02
2018-06-02T19:20:07.486Z,101252.44
2018-06-02T19:22:36.119Z,101251.35
2018-06-02T19:25:06.026Z,101254.61
2018-06-02T19:27:34.642Z,101254.66
2018-06-02T19:30:03.802Z,101265.06
2018-06-02T19:32:32.968Z,101265.94
2018-06-02T19:35:02.420Z,101270.94
2018-06-02T19:37:31.488Z,101273.05
2018-06-02T19:40:00.771Z,101278.44
2018-06-02T19:42:29.135Z,101285.05
2018-06-02T19:44:58.156Z,101282.48
2018-06-02T19:47:27.530Z,101283.28
2018-06-02T19:49:55.932Z,101279.83
2018-06-02T19:52:25.499Z,101282.17
2018-06-02T19:54:55.924Z,101288.78
2018-06-02T19:57:25.161Z,101293.13
2018-06-02T19:59:53.560Z,101290.16
2018-06-02T20:02:22.932Z,101293.17
2018-06-02T20:04:51.292Z,101289.95
2018-06-02T20:07:20.426Z,101299.13
2018-06-02T20:09:49.291Z,101298.23
2018-06-02T20:12:17.675Z,101288.20
2018-06-02T20:14:46.208Z,101288.09
2018-06-02T20:17:14.608Z,101283.86
2018-06-02T20:19:43.757Z,101275.92
2018-06-02T20:22:13.202Z,101279.70
2018-06-02T20:24:44.714Z,101282.13
2018-06-02T20:27:13.156Z,101279.46
2018-06-02T20:29:43.340Z,101280.25
2018-06-02T20:32:13.330Z,101280.06
2018-06-02T20:34:41.854Z,101282.33
2018-06-02T20:37:10.261Z,101283.25
2018-06-02T20:39:39.474Z,101283.25
2018-06-02T20:42:08.643Z,101288.23
2018-06-02T20:44:37.744Z,101288.13
2018-06-02T20:47:07.318Z,101296.19
2018-06-02T20:49:36.175Z,101296.64
2018-06-02T20:52:05.822Z,101294.22
2018-06-02T20:54:34.203Z,101301.87
2018-06-02T20:57:03.385Z,101298.90
2018-06-02T20:59:32.864Z,101297.35
2018-06-02T21:02:01.219Z,101297.70
2018-06-02T21:04:29.578Z,101302.11
2018-06-02T21:06:58.884Z,101302.13
2018-06-02T21:09:28.153Z,101299.44
2018-06-02T21:11:56.541Z,101297.41
2018-06-02T21:14:24.937Z,101294.33
2018-06-02T21:16:55.011Z,101297.28
2018-06-02T21:19:23.424Z,101301.06
2018-06-02T21:21:52.604Z,101297.20
2018-06-02T21:24:22.392Z,101297.41
2018-06-02T21:26:50.910Z,101299.03
2018-06-02T21:29:19.664Z,101295.90
2018-06-02T21:31:48.282Z,101304.23
2018-06-02T21:34:17.669Z,101300.48
2018-06-02T21:36:46.884Z,101297.51
2018-06-02T21:39:16.158Z,101301.31
2018-06-02T21:41:45.511Z,101304.73
2018-06-02T21:44:15.393Z,101305.16
2018-06-02T21:46:45.288Z,101303.95
2018-06-02T21:49:13.660Z,101311.92
2018-06-02T21:51:43.291Z,101305.25
2018-06-02T21:54:11.642Z,101306.98
2018-06-02T21:56:40.014Z,101310.14
2018-06-02T21:59:08.425Z,101308.86
2018-06-02T22:01:36.786Z,101316.38
2018-06-02T22:04:05.186Z,101317.05
2018-06-02T22:06:34.323Z,101318.42
2018-06-02T22:09:02.697Z,101315.90
2018-06-02T22:11:32.602Z,101318.55
2018-06-02T22:14:04.774Z,101316.62
2018-06-02T22:16:34.826Z,101318.45
2018-06-02T22:19:04.338Z,101319.35
2018-06-02T22:21:32.684Z,101315.11
2018-06-02T22:24:01.871Z,101316.53
2018-06-02T22:26:31.789Z,101314.02
2018-06-02T22:29:00.930Z,101315.81
2018-06-02T22:31:30.317Z,101312.44
2018-06-02T22:33:59.214Z,101310.42
2018-06-02T22:36:28.215Z,101312.80
2018-06-02T22:38:57.497Z,101298.60
2018-06-02T22:41:26.699Z,101302.09
2018-06-02T22:43:55.536Z,101307.73
2018-06-02T22:46:23.965Z,101301.16
2018-06-02T22:48:52.307Z,101311.73
2018-06-02T22:51:39.167Z,101318.14
2018-06-02T22:54:07.604Z,101324.80
2018-06-02T22:56:37.647Z,101319.89
2018-06-02T22:59:06.765Z,101318.93
2018-06-02T23:01:35.872Z,101321.00
2018-06-02T23:04:05.855Z,101321.30
2018-06-02T23:06:34.242Z,101324.45
2018-06-02T23:09:05.352Z,101322.76
2018-06-02T23:11:35.259Z,101324.56
2018-06-02T23:14:05.544Z,101322.66
2018-06-02T23:16:34.837Z,101324.08
2018-06-02T23:19:03.929Z,101316.77
2018-06-02T23:21:32.286Z,101323.82
2018-06-02T23:24:01.241Z,101317.77
2018-06-02T23:26:30.464Z,101322.13
2018-06-02T23:29:00.512Z,101322.19
2018-06-02T23:31:29.639Z,101326.10
2018-06-02T23:33:58.024Z,101327.46
2018-06-02T23:36:26.379Z,101334.06
2018-06-02T23:38:54.817Z,101333.50
2018-06-02T23:41:23.320Z,101334.84
2018-06-02T23:43:51.717Z,101335.84
2018-06-02T23:46:20.054Z,101332.47
2018-06-02T23:48:49.353Z,101336.15
2018-06-02T23:51:20.402Z,101335.41
2018-06-02T23:53:49.419Z,101340.64
2018-06-02T23:56:18.828Z,101346.78
2018-06-02T23:58:47.226Z,101341.59
